createdAt,value
2018-09-14T00:02:17.148Z,89.10
2018-09-14T00:04:45.487Z,89.00
2018-09-14T00:07:13.771Z,89.20
2018-09-14T00:09:42.184Z,89.40
2018-09-14T00:12:10.458Z,89.50
2018-09-14T00:14:38.735Z,89.80
2018-09-14T00:17:07.314Z,90.10
2018-09-14T00:19:35.628Z,90.10
2018-09-14T00:22:04.903Z,90.00
2018-09-14T00:24:33.181Z,90.10
2018-09-14T00:27:01.491Z,90.00
2018-09-14T00:29:29.767Z,90.10
2018-09-14T00:31:57.997Z,90.20
2018-09-14T00:34:26.279Z,90.30
2018-09-14T00:36:54.611Z,90.30
2018-09-14T00:39:22.943Z,90.30
2018-09-14T00:41:51.247Z,90.00
2018-09-14T00:44:19.555Z,90.40
2018-09-14T00:46:47.880Z,90.60
2018-09-14T00:49:16.175Z,90.70
2018-09-14T00:51:44.453Z,90.60
2018-09-14T00:54:12.755Z,90.60
2018-09-14T00:56:41.067Z,90.60
2018-09-14T00:59:09.339Z,90.70
2018-09-14T01:01:37.652Z,90.70
2018-09-14T01:04:05.976Z,90.70
2018-09-14T01:06:34.267Z,90.60
2018-09-14T01:09:02.616Z,90.70
2018-09-14T01:11:30.867Z,90.90
2018-09-14T01:13:59.179Z,90.80
2018-09-14T01:16:27.430Z,90.90
2018-09-14T01:18:55.683Z,90.90
2018-09-14T01:21:24.008Z,90.80
2018-09-14T01:23:52.315Z,90.80
2018-09-14T01:26:20.595Z,90.90
2018-09-14T01:28:48.872Z,90.90
2018-09-14T01:31:17.165Z,90.90
2018-09-14T01:33:45.460Z,90.90
2018-09-14T01:36:13.741Z,90.90
2018-09-14T01:38:42.196Z,90.80
2018-09-14T01:41:10.626Z,90.70
2018-09-14T01:43:39.162Z,90.80
2018-09-14T01:46:07.817Z,90.90
2018-09-14T01:48:36.123Z,90.90
2018-09-14T01:51:04.433Z,90.90
2018-09-14T01:53:32.775Z,91.00
2018-09-14T01:56:01.218Z,91.00
2018-09-14T01:58:29.508Z,91.10
2018-09-14T02:00:57.828Z,91.00
2018-09-14T02:03:26.232Z,91.00
2018-09-14T02:05:54.495Z,91.40
2018-09-14T02:08:22.788Z,91.00
2018-09-14T02:10:51.068Z,91.00
2018-09-14T02:13:19.350Z,91.10
2018-09-14T02:15:47.667Z,91.20
2018-09-14T02:18:15.959Z,91.00
2018-09-14T02:20:44.221Z,91.00
2018-09-14T02:23:12.435Z,91.00
2018-09-14T02:25:40.788Z,91.00
2018-09-14T02:28:09.049Z,91.20
2018-09-14T02:30:37.352Z,91.20
2018-09-14T02:33:05.664Z,91.20
2018-09-14T02:35:34.160Z,91.30
2018-09-14T02:38:02.444Z,91.30
2018-09-14T02:40:30.766Z,91.30
2018-09-14T02:42:59.000Z,91.30
2018-09-14T02:45:27.342Z,91.40
2018-09-14T02:47:55.604Z,91.20
2018-09-14T02:50:24.059Z,91.10
2018-09-14T02:52:52.385Z,91.10
2018-09-14T02:55:20.944Z,91.10
2018-09-14T02:57:49.204Z,91.10
2018-09-14T03:00:17.591Z,91.10
2018-09-14T03:02:45.851Z,91.20
2018-09-14T03:05:14.120Z,91.20
2018-09-14T03:07:42.404Z,91.20
2018-09-14T03:10:10.757Z,91.30
2018-09-14T03:12:39.105Z,91.30
2018-09-14T03:15:07.420Z,91.30
2018-09-14T03:17:35.684Z,91.30
2018-09-14T03:20:04.067Z,91.70
2018-09-14T03:22:32.375Z,91.30
2018-09-14T03:25:00.668Z,91.30
2018-09-14T03:27:28.956Z,91.40
2018-09-14T03:29:57.243Z,91.50
2018-09-14T03:32:26.851Z,91.50
2018-09-14T03:34:55.193Z,91.50
2018-09-14T03:37:24.884Z,91.50
2018-09-14T03:39:53.281Z,91.50
2018-09-14T03:42:22.010Z,91.50
2018-09-14T03:44:50.437Z,91.40
2018-09-14T03:47:18.677Z,91.30
2018-09-14T03:49:46.969Z,91.30
2018-09-14T03:52:15.251Z,91.40
2018-09-14T03:54:43.480Z,91.30
2018-09-14T03:57:11.811Z,91.30
2018-09-14T03:59:40.110Z,91.40
2018-09-14T04:02:08.403Z,91.50
2018-09-14T04:04:36.956Z,91.40
2018-09-14T04:07:05.334Z,91.40
2018-09-14T04:09:33.670Z,91.40
2018-09-14T04:12:01.931Z,91.40
2018-09-14T04:14:33.256Z,91.50
2018-09-14T04:17:01.491Z,91.40
2018-09-14T04:19:29.770Z,91.40
2018-09-14T04:21:58.077Z,91.50
2018-09-14T04:24:26.383Z,91.50
2018-09-14T04:26:54.613Z,91.50
2018-09-14T04:29:22.923Z,91.50
2018-09-14T04:31:51.232Z,91.40
2018-09-14T04:34:19.492Z,91.50
2018-09-14T04:36:47.751Z,91.60
2018-09-14T04:39:16.038Z,91.60
2018-09-14T04:41:44.348Z,91.50
2018-09-14T04:44:12.616Z,91.50
2018-09-14T04:46:40.904Z,91.50
2018-09-14T04:49:09.184Z,91.50
2018-09-14T04:51:37.495Z,91.50
2018-09-14T04:54:05.732Z,91.50
2018-09-14T04:56:34.104Z,91.40
2018-09-14T04:59:02.442Z,91.40
2018-09-14T05:01:30.691Z,91.40
2018-09-14T05:03:58.991Z,91.40
2018-09-14T05:06:27.308Z,91.50
2018-09-14T05:08:55.591Z,91.80
2018-09-14T05:11:27.846Z,91.50
2018-09-14T05:13:56.162Z,91.60
2018-09-14T05:16:24.505Z,91.60
2018-09-14T05:18:52.863Z,91.60
2018-09-14T05:21:21.272Z,91.60
2018-09-14T05:23:49.560Z,91.70
2018-09-14T05:26:17.837Z,91.70
2018-09-14T05:28:46.116Z,91.80
2018-09-14T05:31:14.426Z,91.80
2018-09-14T05:33:42.775Z,91.80
2018-09-14T05:36:11.025Z,91.90
2018-09-14T05:38:39.359Z,91.80
2018-09-14T05:41:07.631Z,91.80
2018-09-14T05:43:35.936Z,91.90
2018-09-14T05:46:04.201Z,92.00
2018-09-14T05:48:32.556Z,92.00
2018-09-14T05:51:00.770Z,92.20
2018-09-14T05:53:28.966Z,92.30
2018-09-14T05:55:57.264Z,92.50
2018-09-14T05:58:25.539Z,92.60
2018-09-14T06:00:53.891Z,92.70
2018-09-14T06:03:22.191Z,92.70
2018-09-14T06:05:50.629Z,92.90
2018-09-14T06:08:18.897Z,93.20
2018-09-14T06:10:47.339Z,93.40
2018-09-14T06:13:15.631Z,93.40
2018-09-14T06:15:43.951Z,93.50
2018-09-14T06:18:12.247Z,93.60
2018-09-14T06:20:40.499Z,94.00
2018-09-14T06:23:08.823Z,94.50
2018-09-14T06:25:37.063Z,94.60
2018-09-14T06:28:05.606Z,94.80
2018-09-14T06:30:33.895Z,94.70
2018-09-14T06:33:02.176Z,94.90
2018-09-14T06:35:30.665Z,95.00
2018-09-14T06:37:58.971Z,95.10
2018-09-14T06:40:27.498Z,95.10
2018-09-14T06:42:55.792Z,94.90
2018-09-14T06:45:24.235Z,94.90
2018-09-14T06:47:52.447Z,94.90
2018-09-14T06:50:20.708Z,94.80
2018-09-14T06:52:48.983Z,94.70
2018-09-14T06:55:17.235Z,94.50
2018-09-14T06:57:45.447Z,94.70
2018-09-14T07:00:13.771Z,94.70
2018-09-14T07:02:42.076Z,94.50
2018-09-14T07:05:10.330Z,95.10
2018-09-14T07:07:38.615Z,94.80
2018-09-14T07:10:06.859Z,94.80
2018-09-14T07:12:35.145Z,94.80
2018-09-14T07:15:04.665Z,95.10
2018-09-14T07:17:32.899Z,95.20
2018-09-14T07:20:01.181Z,95.20
2018-09-14T07:22:29.451Z,95.40
2018-09-14T07:24:57.791Z,95.20
2018-09-14T07:27:27.693Z,95.30
2018-09-14T07:29:56.021Z,95.50
2018-09-14T07:32:25.855Z,95.40
2018-09-14T07:34:54.067Z,95.30
2018-09-14T07:37:22.389Z,95.10
2018-09-14T07:39:50.647Z,95.70
2018-09-14T07:42:18.946Z,95.80
2018-09-14T07:44:47.247Z,96.00
2018-09-14T07:47:15.560Z,96.20
2018-09-14T07:49:43.867Z,96.00
2018-09-14T07:52:12.164Z,96.10
2018-09-14T07:54:40.472Z,96.30
2018-09-14T07:57:08.763Z,96.20
2018-09-14T07:59:37.143Z,95.70
2018-09-14T08:02:05.496Z,95.50
2018-09-14T08:04:33.943Z,95.10
2018-09-14T08:07:02.196Z,95.10
2018-09-14T08:09:30.467Z,95.30
2018-09-14T08:11:58.817Z,95.20
2018-09-14T08:14:48.602Z,95.00
2018-09-14T08:17:16.839Z,95.30
2018-09-14T08:19:45.092Z,95.00
2018-09-14T08:22:13.358Z,94.90
2018-09-14T08:24:41.696Z,94.80
2018-09-14T08:27:10.047Z,94.40
2018-09-14T08:29:38.338Z,94.40
2018-09-14T08:32:06.687Z,94.60
2018-09-14T08:34:34.936Z,94.30
2018-09-14T08:37:03.199Z,94.30
2018-09-14T08:39:31.537Z,94.10
2018-09-14T08:41:59.820Z,94.00
2018-09-14T08:44:28.096Z,93.60
2018-09-14T08:46:56.448Z,93.60
2018-09-14T08:49:24.735Z,93.90
2018-09-14T08:51:52.967Z,93.50
2018-09-14T08:54:21.223Z,93.30
2018-09-14T08:56:49.491Z,93.40
2018-09-14T08:59:17.782Z,93.20
2018-09-14T09:01:46.026Z,93.50
2018-09-14T09:04:14.259Z,93.20
2018-09-14T09:06:42.543Z,93.20
2018-09-14T09:09:12.370Z,93.20
2018-09-14T09:11:40.957Z,92.40
2018-09-14T09:14:09.203Z,92.00
2018-09-14T09:16:38.472Z,91.90
2018-09-14T09:19:06.737Z,91.70
2018-09-14T09:21:35.072Z,91.60
2018-09-14T09:24:03.384Z,90.40
2018-09-14T09:26:31.732Z,86.80
2018-09-14T09:29:00.033Z,85.30
2018-09-14T09:31:28.442Z,84.70
2018-09-14T09:33:56.719Z,84.60
2018-09-14T09:36:25.064Z,82.30
2018-09-14T09:38:53.390Z,79.00
2018-09-14T09:41:21.648Z,77.70
2018-09-14T09:43:49.981Z,76.30
2018-09-14T09:46:18.295Z,75.40
2018-09-14T09:48:46.593Z,71.50
2018-09-14T09:51:15.020Z,70.10
2018-09-14T09:53:43.263Z,68.30
2018-09-14T09:56:11.570Z,66.20
2018-09-14T09:58:40.827Z,66.50
2018-09-14T10:01:14.701Z,65.70
2018-09-14T10:03:43.761Z,65.20
2018-09-14T10:06:17.507Z,64.50
2018-09-14T10:08:45.793Z,62.10
2018-09-14T10:11:23.441Z,59.90
2018-09-14T10:13:51.743Z,59.30
2018-09-14T10:16:20.047Z,59.70
2018-09-14T10:18:48.368Z,61.10
2018-09-14T10:21:16.836Z,58.80
2018-09-14T10:23:45.198Z,58.40
2018-09-14T10:26:13.490Z,57.40
2018-09-14T10:28:41.747Z,57.50
2018-09-14T10:31:10.043Z,57.60
2018-09-14T10:33:38.349Z,56.60
2018-09-14T10:36:06.725Z,55.30
2018-09-14T10:38:34.987Z,54.00
2018-09-14T10:41:03.335Z,52.10
2018-09-14T10:43:31.667Z,51.70
2018-09-14T10:45:59.943Z,50.10
2018-09-14T10:48:28.187Z,47.50
2018-09-14T10:50:56.462Z,46.30
2018-09-14T10:53:24.770Z,45.10
2018-09-14T10:55:53.092Z,44.60
2018-09-14T10:58:21.354Z,42.90
2018-09-14T11:00:49.766Z,42.10
2018-09-14T11:03:18.004Z,40.20
2018-09-14T11:05:46.274Z,39.20
2018-09-14T11:08:14.544Z,36.60
2018-09-14T11:10:42.902Z,38.30
2018-09-14T11:13:11.204Z,36.60
2018-09-14T11:15:51.075Z,34.10
2018-09-14T11:18:19.363Z,34.10
2018-09-14T11:20:47.695Z,34.50
2018-09-14T11:23:15.963Z,33.60
2018-09-14T11:25:44.286Z,32.90
2018-09-14T11:28:12.599Z,32.90
2018-09-14T11:30:40.899Z,32.20
2018-09-14T11:33:09.164Z,30.90
2018-09-14T11:35:37.432Z,30.50
2018-09-14T11:38:05.822Z,31.00
2018-09-14T11:40:34.104Z,31.00
2018-09-14T11:43:02.455Z,31.20
2018-09-14T11:45:30.915Z,30.80
2018-09-14T11:47:59.242Z,31.10
2018-09-14T11:50:27.624Z,30.70
2018-09-14T11:52:55.936Z,30.90
2018-09-14T11:55:24.452Z,30.70
2018-09-14T11:57:52.784Z,30.00
2018-09-14T12:00:21.099Z,30.50
2018-09-14T12:02:49.375Z,30.70
2018-09-14T12:05:17.702Z,31.00
2018-09-14T12:07:46.010Z,30.10
2018-09-14T12:10:14.328Z,30.10
2018-09-14T12:12:42.663Z,29.90
2018-09-14T12:15:59.765Z,29.90
2018-09-14T12:18:28.055Z,29.70
2018-09-14T12:20:56.519Z,29.40
2018-09-14T12:23:24.828Z,30.40
2018-09-14T12:25:53.236Z,30.80
2018-09-14T12:28:21.564Z,29.70
2018-09-14T12:30:50.054Z,29.10
2018-09-14T12:33:18.374Z,30.10
2018-09-14T12:35:46.689Z,29.90
2018-09-14T12:38:15.040Z,29.60
2018-09-14T12:40:43.324Z,29.40
2018-09-14T12:43:11.700Z,29.30
2018-09-14T12:45:40.035Z,29.30
2018-09-14T12:48:08.276Z,29.00
2018-09-14T12:50:36.560Z,28.50
2018-09-14T12:53:04.794Z,28.50
2018-09-14T12:55:33.178Z,28.10
2018-09-14T12:58:01.518Z,28.00
2018-09-14T13:00:29.880Z,27.90
2018-09-14T13:02:58.211Z,27.90
2018-09-14T13:05:26.515Z,26.60
2018-09-14T13:07:54.829Z,26.60
2018-09-14T13:10:23.077Z,26.70
2018-09-14T13:12:51.456Z,27.10
2018-09-14T13:16:08.717Z,26.60
2018-09-14T13:18:37.050Z,26.60
2018-09-14T13:21:05.380Z,27.00
2018-09-14T13:23:33.663Z,27.10
2018-09-14T13:26:01.995Z,27.40
2018-09-14T13:28:30.239Z,26.70
2018-09-14T13:30:58.543Z,26.30
2018-09-14T13:33:26.832Z,26.20
2018-09-14T13:35:55.112Z,25.70
2018-09-14T13:38:23.406Z,25.30
2018-09-14T13:40:51.711Z,25.50
2018-09-14T13:43:19.980Z,25.70
2018-09-14T13:45:48.224Z,25.70
2018-09-14T13:48:16.632Z,25.40
2018-09-14T13:50:44.887Z,24.80
2018-09-14T13:53:13.223Z,25.10
2018-09-14T13:55:41.568Z,24.20
2018-09-14T13:58:09.986Z,24.00
2018-09-14T14:00:38.240Z,24.60
2018-09-14T14:03:06.619Z,25.30
2018-09-14T14:05:35.040Z,25.70
2018-09-14T14:08:03.369Z,26.30
2018-09-14T14:10:31.702Z,26.30
2018-09-14T14:13:00.014Z,25.60
2018-09-14T14:16:03.805Z,26.00
2018-09-14T14:18:32.126Z,26.30
2018-09-14T14:21:00.420Z,25.80
2018-09-14T14:23:28.663Z,26.50
2018-09-14T14:25:56.898Z,26.90
2018-09-14T14:28:25.133Z,26.70
2018-09-14T14:30:53.703Z,27.10
2018-09-14T14:33:21.986Z,27.40
2018-09-14T14:35:50.257Z,27.70
2018-09-14T14:38:18.568Z,27.90
2018-09-14T14:40:46.866Z,28.30
2018-09-14T14:43:15.175Z,28.30
2018-09-14T14:45:43.537Z,28.30
2018-09-14T14:48:11.849Z,28.50
2018-09-14T14:50:40.211Z,28.30
2018-09-14T14:53:08.540Z,28.60
2018-09-14T14:55:36.815Z,28.30
2018-09-14T14:58:05.124Z,28.20
2018-09-14T15:00:33.449Z,27.80
2018-09-14T15:03:01.733Z,27.90
2018-09-14T15:05:30.040Z,28.50
2018-09-14T15:07:58.448Z,28.70
2018-09-14T15:10:26.798Z,28.90
2018-09-14T15:12:55.117Z,28.80
2018-09-14T15:18:42.762Z,29.50
2018-09-14T15:21:11.048Z,29.30
2018-09-14T15:23:45.975Z,29.40
2018-09-14T15:26:14.276Z,29.30
2018-09-14T15:28:42.636Z,29.70
2018-09-14T15:31:10.983Z,30.00
2018-09-14T15:33:39.299Z,30.00
2018-09-14T15:36:07.619Z,30.10
2018-09-14T15:38:35.908Z,30.70
2018-09-14T15:41:04.188Z,30.60
2018-09-14T15:43:34.448Z,30.90
2018-09-14T15:46:02.781Z,31.50
2018-09-14T15:48:31.128Z,32.30
2018-09-14T15:50:59.440Z,32.60
2018-09-14T15:53:27.752Z,32.70
2018-09-14T15:55:56.007Z,33.20
2018-09-14T15:58:30.919Z,34.10
2018-09-14T16:00:59.292Z,34.10
2018-09-14T16:03:27.560Z,33.80
2018-09-14T16:05:55.859Z,33.50
2018-09-14T16:08:24.157Z,33.50
2018-09-14T16:10:52.452Z,33.40
2018-09-14T16:13:20.783Z,33.80
2018-09-14T16:19:14.206Z,34.70
2018-09-14T16:21:42.506Z,36.10
2018-09-14T16:24:10.922Z,37.20
2018-09-14T16:26:39.277Z,37.60
2018-09-14T16:29:07.541Z,37.60
2018-09-14T16:31:35.905Z,38.50
2018-09-14T16:34:04.191Z,38.90
2018-09-14T16:36:32.516Z,39.40
2018-09-14T16:39:00.771Z,40.10
2018-09-14T16:41:29.037Z,40.50
2018-09-14T16:43:57.328Z,40.70
2018-09-14T16:46:25.604Z,41.00
2018-09-14T16:48:53.884Z,41.40
2018-09-14T16:51:22.188Z,41.90
2018-09-14T16:53:50.481Z,42.00
2018-09-14T16:56:18.791Z,42.60
2018-09-14T16:58:47.325Z,43.10
2018-09-14T17:01:15.611Z,43.30
2018-09-14T17:03:43.891Z,43.80
2018-09-14T17:06:12.240Z,44.20
2018-09-14T17:08:40.559Z,45.40
2018-09-14T17:11:08.887Z,46.00
2018-09-14T17:13:37.195Z,46.90
2018-09-14T17:19:27.139Z,47.80
2018-09-14T17:21:55.424Z,48.10
2018-09-14T17:24:23.685Z,48.50
2018-09-14T17:26:51.962Z,48.90
2018-09-14T17:29:20.340Z,49.00
2018-09-14T17:31:48.618Z,49.10
2018-09-14T17:34:16.922Z,49.70
2018-09-14T17:36:45.328Z,50.00
2018-09-14T17:39:13.683Z,50.30
2018-09-14T17:41:41.970Z,50.60
2018-09-14T17:44:10.246Z,50.80
2018-09-14T17:46:38.532Z,50.90
2018-09-14T17:49:06.887Z,51.10
2018-09-14T17:51:35.207Z,51.70
2018-09-14T17:54:03.538Z,52.00
2018-09-14T17:56:31.834Z,52.10
2018-09-14T17:59:00.139Z,52.50
2018-09-14T18:01:28.487Z,52.80
2018-09-14T18:03:56.781Z,53.00
2018-09-14T18:06:25.051Z,52.90
2018-09-14T18:08:53.300Z,53.10
2018-09-14T18:11:23.596Z,53.40
2018-09-14T18:13:51.961Z,53.90
2018-09-14T18:17:11.415Z,54.10
2018-09-14T18:19:39.663Z,54.50
2018-09-14T18:22:08.256Z,54.70
2018-09-14T18:24:36.624Z,54.80
2018-09-14T18:27:04.920Z,55.10
2018-09-14T18:29:33.308Z,55.50
2018-09-14T18:32:01.627Z,55.80
2018-09-14T18:34:29.936Z,56.30
2018-09-14T18:37:06.757Z,56.60
2018-09-14T18:39:35.113Z,56.90
2018-09-14T18:42:03.423Z,57.00
2018-09-14T18:44:31.689Z,57.00
2018-09-14T18:46:59.971Z,57.40
2018-09-14T18:49:28.407Z,57.30
2018-09-14T18:51:56.778Z,57.50
2018-09-14T18:54:25.044Z,57.60
2018-09-14T18:56:53.332Z,57.50
2018-09-14T18:59:21.592Z,57.60
2018-09-14T19:01:50.027Z,57.60
2018-09-14T19:04:18.368Z,57.60
2018-09-14T19:06:46.736Z,57.80
2018-09-14T19:09:15.165Z,57.80
2018-09-14T19:11:43.475Z,57.80
2018-09-14T19:14:11.904Z,57.80
2018-09-14T19:17:21.809Z,57.80
2018-09-14T19:19:50.137Z,57.90
2018-09-14T19:22:18.447Z,58.10
2018-09-14T19:24:46.953Z,58.00
2018-09-14T19:27:15.131Z,58.30
2018-09-14T19:29:43.412Z,58.40
2018-09-14T19:32:11.663Z,59.00
2018-09-14T19:34:39.972Z,59.10
2018-09-14T19:37:08.336Z,58.90
2018-09-14T19:39:36.620Z,58.90
2018-09-14T19:42:04.959Z,59.70
2018-09-14T19:44:33.392Z,59.20
2018-09-14T19:47:01.778Z,59.30
2018-09-14T19:49:30.031Z,59.30
2018-09-14T19:51:58.388Z,59.40
2018-09-14T19:54:26.929Z,59.60
2018-09-14T19:56:55.184Z,59.80
2018-09-14T19:59:23.461Z,59.90
2018-09-14T20:01:51.804Z,60.00
2018-09-14T20:04:20.059Z,60.30
2018-09-14T20:06:48.320Z,60.00
2018-09-14T20:09:16.607Z,60.20
2018-09-14T20:11:44.923Z,60.30
2018-09-14T20:14:13.224Z,60.60
2018-09-14T20:17:19.787Z,60.70
2018-09-14T20:19:48.211Z,60.70
2018-09-14T20:22:16.484Z,60.70
2018-09-14T20:24:44.764Z,60.90
2018-09-14T20:30:51.144Z,61.40
2018-09-14T20:33:19.435Z,61.30
2018-09-14T20:35:47.739Z,61.70
2018-09-14T20:38:16.011Z,61.90
2018-09-14T20:40:44.252Z,62.20
2018-09-14T20:43:12.515Z,62.40
2018-09-14T20:45:40.784Z,62.60
2018-09-14T20:48:09.084Z,62.70
2018-09-14T20:50:37.375Z,62.90
2018-09-14T20:53:05.744Z,63.30
2018-09-14T20:55:34.088Z,63.40
2018-09-14T20:58:02.492Z,63.60
2018-09-14T21:00:30.747Z,64.20
2018-09-14T21:02:58.989Z,64.60
2018-09-14T21:05:27.511Z,65.10
2018-09-14T21:07:56.271Z,65.30
2018-09-14T21:10:24.643Z,65.30
2018-09-14T21:12:53.147Z,65.50
2018-09-14T21:15:38.765Z,65.70
2018-09-14T21:18:07.064Z,66.00
2018-09-14T21:20:35.575Z,66.30
2018-09-14T21:23:03.913Z,66.60
2018-09-14T21:25:32.218Z,66.70
2018-09-14T21:28:00.603Z,66.70
2018-09-14T21:30:29.444Z,67.00
2018-09-14T21:32:57.739Z,67.40
2018-09-14T21:35:26.170Z,67.50
2018-09-14T21:37:54.441Z,67.80
2018-09-14T21:40:22.837Z,68.10
2018-09-14T21:42:51.417Z,68.20
2018-09-14T21:45:19.704Z,68.40
2018-09-14T21:47:48.043Z,68.60
2018-09-14T21:50:16.328Z,68.60
2018-09-14T21:52:44.632Z,68.80
2018-09-14T21:55:13.025Z,69.20
2018-09-14T21:57:41.344Z,69.50
2018-09-14T22:00:16.042Z,69.80
2018-09-14T22:02:44.504Z,69.90
2018-09-14T22:05:13.126Z,70.30
2018-09-14T22:07:41.551Z,70.90
2018-09-14T22:10:09.846Z,71.20
2018-09-14T22:12:38.563Z,71.70
2018-09-14T22:15:06.953Z,72.10
2018-09-14T22:17:35.228Z,72.00
2018-09-14T22:20:03.665Z,72.10
2018-09-14T22:22:31.955Z,72.00
2018-09-14T22:25:00.860Z,72.00
2018-09-14T22:27:30.545Z,72.10
2018-09-14T22:29:58.986Z,72.10
2018-09-14T22:32:30.930Z,72.20
2018-09-14T22:34:59.592Z,72.50
2018-09-14T22:37:29.883Z,72.60
2018-09-14T22:39:58.399Z,73.60
2018-09-14T22:42:28.507Z,73.90
2018-09-14T22:44:57.141Z,74.10
2018-09-14T22:47:25.933Z,74.40
2018-09-14T22:49:55.406Z,74.60
2018-09-14T22:52:23.671Z,74.60
2018-09-14T22:54:51.957Z,74.80
2018-09-14T22:57:20.275Z,75.00
2018-09-14T22:59:48.631Z,75.10
2018-09-14T23:02:16.924Z,75.20
2018-09-14T23:04:45.202Z,75.50
2018-09-14T23:07:13.483Z,75.70
2018-09-14T23:09:41.754Z,76.00
2018-09-14T23:12:10.096Z,76.20
2018-09-14T23:14:38.432Z,76.80
2018-09-14T23:17:06.884Z,77.20
2018-09-14T23:19:35.190Z,77.30
2018-09-14T23:22:03.529Z,77.10
2018-09-14T23:24:31.870Z,77.30
2018-09-14T23:27:00.226Z,77.50
2018-09-14T23:29:28.485Z,77.70
2018-09-14T23:31:56.931Z,77.90
2018-09-14T23:34:25.247Z,78.00
2018-09-14T23:36:53.555Z,77.70
2018-09-14T23:39:21.799Z,77.70
2018-09-14T23:41:50.128Z,77.70
2018-09-14T23:44:18.424Z,77.60
2018-09-14T23:46:46.751Z,77.60
2018-09-14T23:49:15.052Z,77.60
2018-09-14T23:51:43.301Z,77.20
2018-09-14T23:54:11.648Z,77.00
2018-09-14T23:56:39.894Z,77.80
2018-09-14T23:59:08.205Z,77.00
